x

Portlock Bank- 76nm Ene Of Kodiak, Ak (46080) Wave Buoy

1:50am - Fri 28th Nov 2014 All times are AKST. -9 hours from GMT.

  • Sig Wave height 5.6ft
  • Peak Period 12s
  • Average Period 9s
  • Wind
    2mph, 4mph gusts
  • Sea Temp 47°f
  • Air Temp 40°f
  • Sea Pressure 1021.2mb
  • Portlock Bank- 76nm Ene Of Kodiak, Ak
  • Portlock Bank- 76nm Ene Of Kodiak, Ak

More Historic Weather Station data

Upgrade to MSW Pro to gain access to the past 30 days of data for over 8000 Wavebouys and Weather Stations around the globe.

Join Pro

Comparision Forecast

View Surf forecast
   
Fri 11/28 1:50am 5.5ft 12s 9s 2 4 mph 1021.2mb 47f 40f
12:50am 6.5ft 13s 9s  -  4 mph 1021.3mb 47f 40f
Thu 11/27 11:50pm 6ft 13s 8s 4 7 mph 1021.4mb 47f 40f
10:50pm 6ft 14s 8s 7 9 mph 1021.4mb 47f 40f
9:50pm 5.5ft 14s 7s 9 13 mph 1021.3mb 47f 40f
8:50pm 5ft 14s 8s 7 11 mph 1021mb 47f 41f
7:50pm 4.5ft 14s 8s 9 11 mph 1020.8mb 47f 41f
6:50pm 4.5ft 14s 8s 9 11 mph 1020.7mb 47f 41f
5:50pm 4.5ft 14s 7s 7 11 mph 1020.5mb 47f 41f
4:50pm 4.5ft 13s 7s 9 11 mph 1020.5mb 47f 41f
3:50pm 4ft 14s 7s 11 13 mph 1020.5mb 47f 41f
2:50pm 3.5ft 14s 7s 7 11 mph 1020.5mb 47f 42f
1:50pm 3.5ft 13s 6s 2 7 mph 1020.8mb 47f 42f
12:50pm 3.5ft 5s 5s 7 11 mph 1021.2mb 47f 42f
11:50am 3.5ft 13s 5s  -  2 mph 1021.4mb 47f 42f
10:50am 3.5ft 15s 5s 2 4 mph 1021.4mb 47f 42f
9:50am 3.5ft 15s 5s 2 4 mph 1021.3mb 47f 42f
8:50am 3.5ft 15s 5s 2 4 mph 1021.1mb 47f 41f
7:50am 3.5ft 15s 5s 4 9 mph 1020.8mb 47f 41f
6:50am 3ft 15s 5s 4 7 mph 1020.9mb 47f 41f
5:50am 3.5ft 16s 6s 2 7 mph 1021.1mb 47f 41f
4:50am 2.5ft 16s 6s 4 9 mph 1021.2mb 47f 41f
3:50am 2.5ft 16s 6s 4 9 mph 1021.4mb 47f 41f
2:50am 2.5ft 6s 6s 4 7 mph 1021.7mb 47f 41f
1:50am 2.5ft 6s 5s 2 7 mph 1021.6mb 47f 41f
12:50am 2.5ft 6s 5s 7 11 mph 1021.8mb 47f 42f
Wed 11/26 11:50pm 3ft 6s 4s 7 11 mph 1022.1mb 47f 41f
10:50pm 4ft 5s 4s 7 11 mph 1022.2mb 47f 41f
9:50pm 4ft 5s 4s 11 16 mph 1022.2mb 47f 41f
8:50pm 4.5ft 5s 4s 16 20 mph 1022.1mb 47f 41f
7:50pm 4.5ft 5s 4s 16 22 mph 1022.1mb 47f 41f
6:50pm 4ft 5s 4s 18 25 mph 1022.4mb 47f 42f
5:50pm 3.5ft 4s 4s 20 25 mph 1022.6mb 47f 42f
4:50pm 2.5ft 8s 4s 16 20 mph 1023mb 47f 42f
3:50pm 2.5ft 7s 4s 13 16 mph 1023.1mb 47f 41f
2:50pm 2.5ft 8s 5s 13 18 mph 1023.7mb 47f 42f
1:50pm 2.5ft 8s 5s 11 16 mph 1024.3mb 47f 42f
12:50pm 2.5ft 7s 5s 9 16 mph 1024.7mb 47f 42f
11:50am 3ft 7s 5s 11 16 mph 1025mb 47f 42f
10:50am 3ft 7s 5s 9 13 mph 1025.2mb 47f 42f
9:50am 3ft 7s 5s 13 18 mph 1025.2mb 47f 42f
8:50am 3.5ft 8s 5s 7 13 mph 1025.2mb 47f 42f
7:50am 3.5ft 8s 6s 9 13 mph 1025.2mb 47f 43f
6:50am 3ft 8s 5s 11 13 mph 1025mb 47f 43f
5:50am 3.5ft 8s 6s 9 13 mph 1025.1mb 47f 43f
4:50am 3.5ft 8s 6s 7 9 mph 1025.1mb 47f 43f
3:50am 3ft 7s 6s 9 13 mph 1025.7mb 47f 43f
2:50am 3.5ft 7s 6s 9 13 mph 1026.1mb 47f 44f
1:50am 3.5ft 7s 6s 7 9 mph 1026.3mb 47f 44f
12:50am 3.5ft 7s 6s 7 11 mph 1026.5mb 47f 44f
Tue 11/25 11:50pm 3.5ft 8s 6s 4 7 mph 1026.3mb 47f 44f
10:50pm 4ft 7s 5s 4 7 mph 1026.1mb 47f 44f
9:50pm 4.5ft 8s 5s 4 9 mph 1025.9mb 47f 44f
8:50pm 4.5ft 8s 5s 7 11 mph 1025.7mb 47f 44f
7:50pm 4.5ft 8s 6s 9 11 mph 1025.4mb 47f 44f
6:50pm 4ft 8s 6s 11
mph
1024.9mb 47f 45f
5:50pm 4.5ft 8s 6s 9 11 mph 1024.4mb 47f 44f
4:50pm 4ft 8s 6s 4
mph
1024.2mb 47f 44f
3:50pm 3.5ft 8s 5s 11 13 mph 1023.7mb 47f 45f
2:50pm 3.5ft 8s 6s 11 13 mph 1023.4mb 47f 45f
1:50pm 3.5ft 8s 6s 11 13 mph 1023.1mb 47f 45f
12:50pm 4ft 9s 6s 11 13 mph 1023.2mb 47f 45f
11:50am 4.5ft 8s 6s 7 9 mph 1022.8mb 47f 45f
10:50am 4.5ft 9s 6s 11 13 mph 1022.2mb 47f 44f
9:50am 5ft 9s 5s 11 13 mph 1021.3mb 47f 44f
8:50am 5ft 10s 6s 11 13 mph 1020.5mb 47f 45f
7:50am 5ft 8s 6s 9 11 mph 1019.6mb 47f 45f
6:50am 5.5ft 8s 7s 11 13 mph 1018.6mb 47f 45f
5:50am 5ft 9s 7s 9 11 mph 1017.6mb 47f 45f
4:50am 5ft 8s 7s 9 11 mph 1016.9mb 47f 45f
3:50am 5.5ft 9s 7s 7 9 mph 1016.1mb 47f 45f
2:50am 5ft 8s 7s 7 9 mph 1015.2mb 47f 45f
1:50am 5ft 8s 7s 7
mph
1014.5mb 47f 45f
12:50am 5.5ft 9s 7s 4 7 mph 1014mb 47f 45f
Mon 11/24 11:50pm 5ft 10s 6s 4 7 mph 1013.2mb 47f 45f
10:50pm 5ft 10s 6s 4 7 mph 1012.1mb 47f 45f
9:50pm 6ft 9s 6s 4 7 mph 1011.3mb 47f 44f
8:50pm 6.5ft 10s 6s 4 7 mph 1010.4mb 47f 44f
7:50pm 6ft 10s 6s 4 7 mph 1009.5mb 47f 44f
6:50pm 6ft 11s 7s 9 11 mph 1008.6mb 47f 45f
5:50pm 6.5ft 11s 7s 4 7 mph 1007.8mb 47f 44f
4:50pm 6ft 10s 7s 4 7 mph 1006.9mb 47f 45f
3:50pm 6ft 10s 7s 4 7 mph 1006.1mb 47f 46f
2:50pm 6ft 8s 7s  -  2 mph 1005.6mb 47f 45f
1:50pm 6ft 10s 7s 4
mph
1005.2mb 47f 46f
12:50pm 6.5ft 10s 7s 2 4 mph 1004.9mb 47f 44f
11:50am 7ft 10s 7s 4 7 mph 1004.7mb 47f 45f